Main page
METAR-TAF:

METAR-TAF

Airports :

Pskov Airport

Pskov, Russia

latitude: 57-47-06N, longitude: 028-23-54E, elevation: 47 m

Current weather observation

The report was made 19 minutes ago, at 20:00 UTC
Calm wind
Temperature 2°C
Humidity 93%
Pressure 1023 hPa
Visibility: 0200 m

METAR: ULOO 202000Z AUTO 00000MPS 0300 0200NE // NCD 02/01 Q1023 RMK QFE763

Time: 23:19 (20:19 UTC)

Forecast

The report was made 9 hours and 19 minutes ago, at 11:00 UTC
Forecast valid from 20 at 12 UTC to 20 at 21 UTC
Wind 4 kt from the South/Southwest
Visibility: 3100 m
Broken clouds at a height of 1100 ft
mist
Temporary
from 20 at 12 UTC to 20 at 15 UTC
Visibility: 0700 m
Broken clouds at a height of 300 ft
fog
Temporary
from 20 at 15 UTC to 20 at 21 UTC
Visibility: 0300 m
at a height of 200 ft
fog

TAF: ULOO 201100Z 2012/2021 21002MPS 3100 BR BKN011 TEMPO 2012/2015 0700 FG BKN003 TEMPO 2015/2021 0300 FG VV002

Weather observations and forecasts of more than 4000 airports (METAR and TAF reports).

The available stations are represented by yellow and red dots on the map.

Hover mouse over dot to see the name of the station.

Then click to see weather observations and forecasts.

To change the map : click on the green buttons with a black cross to zoom in, on the green button with a dash to zoom out, or on the green arrows for adjacent maps.


METAR-TAF: